createdAt,value
2023-08-31T00:00:00.525Z,13.68
2023-08-31T00:02:27.297Z,13.68
2023-08-31T00:04:56.826Z,13.66
2023-08-31T00:07:23.532Z,13.64
2023-08-31T00:09:50.848Z,13.58
2023-08-31T00:12:17.371Z,13.67
2023-08-31T00:14:43.873Z,13.66
2023-08-31T00:17:10.308Z,13.67
2023-08-31T00:19:36.911Z,13.69
2023-08-31T00:22:03.459Z,13.71
2023-08-31T00:24:32.983Z,13.70
2023-08-31T00:26:59.961Z,13.71
2023-08-31T00:29:26.549Z,13.72
2023-08-31T00:31:54.316Z,13.68
2023-08-31T00:34:21.100Z,13.64
2023-08-31T00:36:47.604Z,13.66
2023-08-31T00:39:14.186Z,13.64
2023-08-31T00:41:40.757Z,13.66
2023-08-31T00:44:08.151Z,13.60
2023-08-31T00:46:35.642Z,13.64
2023-08-31T00:49:05.107Z,13.64
2023-08-31T00:51:31.851Z,13.68
2023-08-31T00:54:00.210Z,13.68
2023-08-31T00:56:27.638Z,13.67
2023-08-31T00:58:55.506Z,13.69
2023-08-31T01:01:38.828Z,13.69
2023-08-31T01:04:42.791Z,13.64
2023-08-31T01:07:19.002Z,13.66
2023-08-31T01:09:50.944Z,13.68
2023-08-31T01:12:20.064Z,13.72
2023-08-31T01:14:52.922Z,13.71
2023-08-31T01:17:21.660Z,13.67
2023-08-31T01:19:53.356Z,13.64
2023-08-31T01:22:37.428Z,13.53
2023-08-31T01:25:05.587Z,13.54
2023-08-31T01:27:33.823Z,13.53
2023-08-31T01:30:00.570Z,13.62
2023-08-31T01:32:27.697Z,13.65
2023-08-31T01:34:54.459Z,13.67
2023-08-31T01:37:32.331Z,13.67
2023-08-31T01:40:15.427Z,13.67
2023-08-31T01:42:43.838Z,13.64
2023-08-31T01:45:12.116Z,13.63
2023-08-31T01:47:38.642Z,13.56
2023-08-31T01:50:05.750Z,13.51
2023-08-31T01:52:32.317Z,13.43
2023-08-31T01:54:59.224Z,13.38
2023-08-31T01:57:25.788Z,13.32
2023-08-31T02:00:17.282Z,13.25
2023-08-31T02:02:43.911Z,13.22
2023-08-31T02:05:10.989Z,13.16
2023-08-31T02:07:37.799Z,13.11
2023-08-31T02:10:07.258Z,13.05
2023-08-31T02:12:37.157Z,12.98
2023-08-31T02:15:07.524Z,12.96
2023-08-31T02:17:37.436Z,12.92
2023-08-31T02:20:05.548Z,12.89
2023-08-31T02:22:34.634Z,12.84
2023-08-31T02:25:02.209Z,12.80
2023-08-31T02:27:28.840Z,12.76
2023-08-31T02:29:56.167Z,12.75
2023-08-31T02:32:22.761Z,12.73
2023-08-31T02:34:49.271Z,12.79
2023-08-31T02:37:15.759Z,12.82
2023-08-31T02:39:42.631Z,12.90
2023-08-31T02:42:09.266Z,12.97
2023-08-31T02:44:35.905Z,12.98
2023-08-31T02:47:03.110Z,13.04
2023-08-31T02:49:29.654Z,13.07
2023-08-31T02:51:56.757Z,13.14
2023-08-31T02:54:23.262Z,13.17
2023-08-31T02:56:49.737Z,13.22
2023-08-31T02:59:17.967Z,13.28
2023-08-31T03:01:47.414Z,13.34
2023-08-31T03:04:14.346Z,13.34
2023-08-31T03:06:40.940Z,13.34
2023-08-31T03:09:07.469Z,13.35
2023-08-31T03:11:34.651Z,13.30
2023-08-31T03:14:01.170Z,13.31
2023-08-31T03:16:27.864Z,13.30
2023-08-31T03:18:54.418Z,13.28
2023-08-31T03:21:21.430Z,13.29
2023-08-31T03:23:47.930Z,13.28
2023-08-31T03:26:14.407Z,13.28
2023-08-31T03:28:41.896Z,13.26
2023-08-31T03:31:08.582Z,13.25
2023-08-31T03:33:35.460Z,13.27
2023-08-31T03:36:03.650Z,13.27
2023-08-31T03:38:32.224Z,13.23
2023-08-31T03:41:00.637Z,13.23
2023-08-31T03:43:27.395Z,13.25
2023-08-31T03:45:57.829Z,13.22
2023-08-31T03:48:25.509Z,13.20
2023-08-31T03:50:56.564Z,13.20
2023-08-31T03:53:23.433Z,13.20
2023-08-31T03:55:53.041Z,13.14
2023-08-31T03:58:19.609Z,13.11
2023-08-31T04:00:51.598Z,13.04
2023-08-31T04:03:19.305Z,13.06
2023-08-31T04:05:45.900Z,13.04
2023-08-31T04:08:13.182Z,12.99
2023-08-31T04:10:39.747Z,12.94
2023-08-31T04:13:06.204Z,12.87
2023-08-31T04:15:33.799Z,12.77
2023-08-31T04:18:00.357Z,12.75
2023-08-31T04:20:27.027Z,12.74
2023-08-31T04:22:53.527Z,12.69
2023-08-31T04:25:20.429Z,12.61
2023-08-31T04:27:46.971Z,12.60
2023-08-31T04:30:13.587Z,12.54
2023-08-31T04:32:40.177Z,12.47
2023-08-31T04:35:06.884Z,12.41
2023-08-31T04:37:34.197Z,12.42
2023-08-31T04:40:00.843Z,12.35
2023-08-31T04:42:27.374Z,12.29
2023-08-31T04:44:53.863Z,12.29
2023-08-31T04:47:20.615Z,12.24
2023-08-31T04:49:47.054Z,12.21
2023-08-31T04:52:13.751Z,12.20
2023-08-31T04:54:40.183Z,12.21
2023-08-31T04:57:08.420Z,12.19
2023-08-31T04:59:34.958Z,12.18
2023-08-31T05:02:01.482Z,12.19
2023-08-31T05:04:29.680Z,12.21
2023-08-31T05:06:56.178Z,12.19
2023-08-31T05:09:23.955Z,12.22
2023-08-31T05:11:50.503Z,12.23
2023-08-31T05:14:17.078Z,12.20
2023-08-31T05:16:43.853Z,12.24
2023-08-31T05:19:10.559Z,12.26
2023-08-31T05:21:37.128Z,12.21
2023-08-31T05:24:04.099Z,12.23
2023-08-31T05:26:30.554Z,12.27
2023-08-31T05:28:57.202Z,12.28
2023-08-31T05:31:23.750Z,12.33
2023-08-31T05:33:50.359Z,12.36
2023-08-31T05:36:16.907Z,12.38
2023-08-31T05:38:43.490Z,12.40
2023-08-31T05:41:10.756Z,12.38
2023-08-31T05:43:37.720Z,12.33
2023-08-31T05:46:04.220Z,12.32
2023-08-31T05:48:31.450Z,12.32
2023-08-31T05:50:58.783Z,12.36
2023-08-31T05:53:25.449Z,12.37
2023-08-31T05:55:52.241Z,12.42
2023-08-31T05:58:18.810Z,12.42
2023-08-31T06:00:45.414Z,12.42
2023-08-31T06:03:12.575Z,12.42
2023-08-31T06:05:39.496Z,12.42
2023-08-31T06:08:07.005Z,12.50
2023-08-31T06:10:33.532Z,12.52
2023-08-31T06:13:00.115Z,12.56
2023-08-31T06:15:26.740Z,12.66
2023-08-31T06:17:53.186Z,12.72
2023-08-31T06:20:19.717Z,12.83
2023-08-31T06:22:46.295Z,13.00
2023-08-31T06:25:12.831Z,13.14
2023-08-31T06:27:40.805Z,13.29
2023-08-31T06:30:09.346Z,13.45
2023-08-31T06:32:35.942Z,13.57
2023-08-31T06:35:02.418Z,13.66
2023-08-31T06:37:28.902Z,13.70
2023-08-31T06:39:55.429Z,13.75
2023-08-31T06:42:21.871Z,13.81
2023-08-31T06:44:48.461Z,13.82
2023-08-31T06:47:17.754Z,13.87
2023-08-31T06:49:44.686Z,13.96
2023-08-31T06:52:21.768Z,14.04
2023-08-31T06:54:57.816Z,14.07
2023-08-31T06:57:25.295Z,14.11
2023-08-31T06:59:51.799Z,14.12
2023-08-31T07:02:22.642Z,14.14
2023-08-31T07:04:49.552Z,14.15
2023-08-31T07:07:16.125Z,14.19
2023-08-31T07:09:47.468Z,14.04
2023-08-31T07:12:13.972Z,14.01
2023-08-31T07:14:40.675Z,14.01
2023-08-31T07:17:07.199Z,14.11
2023-08-31T07:19:36.653Z,14.21
2023-08-31T07:22:05.085Z,14.33
2023-08-31T07:24:31.530Z,14.39
2023-08-31T07:26:58.537Z,14.57
2023-08-31T07:29:25.846Z,14.75
2023-08-31T07:31:52.443Z,14.83
2023-08-31T07:34:19.173Z,14.90
2023-08-31T07:36:45.760Z,14.99
2023-08-31T07:39:12.336Z,15.00
2023-08-31T07:41:39.169Z,14.93
2023-08-31T07:44:06.797Z,14.96
2023-08-31T07:46:34.056Z,14.95
2023-08-31T07:49:00.706Z,14.95
2023-08-31T07:51:27.302Z,14.94
2023-08-31T07:53:53.966Z,14.93
2023-08-31T07:56:20.476Z,14.89
2023-08-31T07:58:47.044Z,14.86
2023-08-31T08:01:13.693Z,14.84
2023-08-31T08:03:41.293Z,14.81
2023-08-31T08:06:07.794Z,14.81
2023-08-31T08:08:34.493Z,14.88
2023-08-31T08:11:01.168Z,14.90
2023-08-31T08:13:27.731Z,14.88
2023-08-31T08:15:54.245Z,14.88
2023-08-31T08:18:20.789Z,14.91
2023-08-31T08:20:54.296Z,15.00
2023-08-31T08:23:22.949Z,15.10
2023-08-31T08:25:49.521Z,15.18
2023-08-31T08:28:15.973Z,15.29
2023-08-31T08:30:42.566Z,15.44
2023-08-31T08:33:10.898Z,15.52
2023-08-31T08:35:41.048Z,15.59
2023-08-31T08:38:07.615Z,15.70
2023-08-31T08:40:35.654Z,15.83
2023-08-31T08:43:02.942Z,15.92
2023-08-31T08:45:38.220Z,15.93
2023-08-31T08:48:06.539Z,15.96
2023-08-31T08:50:35.042Z,15.98
2023-08-31T08:53:03.299Z,16.00
2023-08-31T08:55:29.906Z,16.01
2023-08-31T08:57:58.543Z,16.04
2023-08-31T09:00:28.942Z,16.04
2023-08-31T09:02:56.685Z,16.06
2023-08-31T09:05:24.272Z,16.10
2023-08-31T09:08:05.028Z,16.12
2023-08-31T09:10:39.778Z,16.19
2023-08-31T09:13:11.174Z,16.26
2023-08-31T09:15:41.335Z,16.31
2023-08-31T09:18:08.052Z,16.42
2023-08-31T09:20:48.350Z,16.47
2023-08-31T09:23:16.442Z,16.50
2023-08-31T09:25:49.558Z,16.55
2023-08-31T09:28:17.519Z,16.60
2023-08-31T09:30:45.719Z,16.63
2023-08-31T09:33:17.595Z,16.76
2023-08-31T09:35:52.348Z,16.89
2023-08-31T09:38:19.515Z,17.03
2023-08-31T09:40:46.831Z,17.17
2023-08-31T09:43:20.155Z,17.30
2023-08-31T09:45:46.942Z,17.52
2023-08-31T09:48:15.037Z,17.74
2023-08-31T09:50:44.566Z,17.87
2023-08-31T09:53:12.192Z,17.96
2023-08-31T09:55:40.746Z,18.10
2023-08-31T09:58:15.358Z,18.11
2023-08-31T10:00:44.220Z,18.10
2023-08-31T10:03:15.565Z,18.20
2023-08-31T10:05:50.508Z,18.34
2023-08-31T10:08:17.711Z,18.36
2023-08-31T10:10:45.067Z,18.30
2023-08-31T10:13:12.436Z,18.33
2023-08-31T10:15:40.533Z,18.34
2023-08-31T10:18:07.928Z,18.37
2023-08-31T10:20:35.206Z,18.38
2023-08-31T10:23:08.741Z,18.31
2023-08-31T10:25:47.399Z,18.27
2023-08-31T10:28:27.084Z,18.31
2023-08-31T10:31:17.631Z,18.37
2023-08-31T10:33:45.881Z,18.56
2023-08-31T10:36:19.271Z,18.71
2023-08-31T10:39:01.799Z,18.80
2023-08-31T10:41:36.878Z,18.88
2023-08-31T10:44:24.649Z,18.92
2023-08-31T10:46:52.493Z,18.79
2023-08-31T10:49:20.724Z,18.65
2023-08-31T10:51:55.144Z,18.74
2023-08-31T10:54:25.845Z,18.83
2023-08-31T10:56:55.854Z,18.90
2023-08-31T10:59:23.386Z,18.95
2023-08-31T11:01:53.477Z,18.94
2023-08-31T11:04:20.413Z,18.99
2023-08-31T11:06:47.060Z,18.98
2023-08-31T11:09:21.415Z,18.91
2023-08-31T11:11:49.885Z,18.77
2023-08-31T11:14:17.288Z,18.91
2023-08-31T11:16:44.335Z,19.04
2023-08-31T11:19:10.966Z,19.10
2023-08-31T11:21:38.660Z,19.09
2023-08-31T11:24:05.474Z,19.03
2023-08-31T11:26:33.111Z,18.95
2023-08-31T11:28:59.663Z,18.94
2023-08-31T11:31:26.464Z,19.09
2023-08-31T11:33:54.094Z,19.08
2023-08-31T11:36:20.747Z,19.05
2023-08-31T11:38:49.717Z,19.10
2023-08-31T11:41:16.238Z,19.19
2023-08-31T11:43:42.808Z,19.35
2023-08-31T11:46:09.841Z,19.49
2023-08-31T11:48:36.573Z,19.51
2023-08-31T11:51:03.899Z,19.52
2023-08-31T11:53:30.643Z,19.53
2023-08-31T11:55:57.654Z,19.68
2023-08-31T11:58:25.464Z,19.76
2023-08-31T12:01:01.641Z,19.83
2023-08-31T12:03:39.736Z,19.88
2023-08-31T12:06:11.434Z,19.93
2023-08-31T12:08:38.623Z,20.02
2023-08-31T12:11:07.754Z,20.15
2023-08-31T12:13:34.274Z,20.09
2023-08-31T12:16:02.811Z,20.03
2023-08-31T12:18:35.850Z,19.84
2023-08-31T12:21:02.739Z,19.74
2023-08-31T12:23:29.244Z,19.57
2023-08-31T12:25:55.928Z,19.48
2023-08-31T12:28:23.833Z,19.46
2023-08-31T12:30:52.269Z,19.50
2023-08-31T12:33:19.402Z,19.60
2023-08-31T12:35:46.298Z,19.65
2023-08-31T12:38:12.997Z,19.69
2023-08-31T12:40:39.766Z,19.63
2023-08-31T12:43:06.737Z,19.56
2023-08-31T12:45:34.213Z,19.58
2023-08-31T12:48:01.154Z,19.67
2023-08-31T12:50:27.736Z,19.81
2023-08-31T12:52:54.270Z,19.85
2023-08-31T12:55:20.889Z,19.92
2023-08-31T12:57:47.455Z,20.06
2023-08-31T13:00:15.761Z,20.20
2023-08-31T13:02:43.388Z,20.11
2023-08-31T13:05:10.871Z,20.04
2023-08-31T13:07:37.864Z,19.97
2023-08-31T13:10:05.499Z,19.82
2023-08-31T13:12:33.124Z,19.78
2023-08-31T13:15:00.256Z,19.77
2023-08-31T13:17:30.220Z,19.72
2023-08-31T13:19:58.149Z,19.71
2023-08-31T13:22:25.428Z,19.64
2023-08-31T13:24:52.360Z,19.69
2023-08-31T13:27:18.918Z,19.68
2023-08-31T13:29:45.641Z,19.59
2023-08-31T13:32:12.197Z,19.60
2023-08-31T13:34:38.672Z,19.61
2023-08-31T13:37:05.991Z,19.62
2023-08-31T13:39:34.502Z,19.61
2023-08-31T13:42:04.228Z,19.62
2023-08-31T13:44:32.261Z,19.69
2023-08-31T13:46:58.849Z,19.66
2023-08-31T13:49:25.302Z,19.65
2023-08-31T13:51:52.071Z,19.63
2023-08-31T13:54:18.641Z,19.65
2023-08-31T13:56:45.107Z,19.76
2023-08-31T13:59:12.280Z,19.86
2023-08-31T14:01:39.168Z,19.90
2023-08-31T14:04:05.948Z,19.88
2023-08-31T14:06:32.465Z,19.88
2023-08-31T14:09:00.204Z,19.79
2023-08-31T14:11:30.597Z,19.68
2023-08-31T14:14:12.075Z,19.72
2023-08-31T14:16:38.999Z,19.73
2023-08-31T14:19:05.687Z,19.72
2023-08-31T14:21:32.781Z,19.75
2023-08-31T14:23:59.297Z,19.72
2023-08-31T14:26:26.122Z,19.76
2023-08-31T14:28:52.920Z,19.85
2023-08-31T14:31:20.244Z,19.97
2023-08-31T14:33:46.735Z,20.14
2023-08-31T14:36:15.494Z,20.22
2023-08-31T14:38:43.097Z,20.23
2023-08-31T14:41:09.796Z,20.22
2023-08-31T14:43:36.341Z,20.20
2023-08-31T14:46:02.900Z,20.17
2023-08-31T14:48:29.851Z,20.15
2023-08-31T14:50:56.438Z,20.07
2023-08-31T14:53:25.683Z,20.02
2023-08-31T14:55:52.241Z,19.94
2023-08-31T14:58:20.071Z,19.89
2023-08-31T15:00:46.844Z,19.83
2023-08-31T15:03:13.593Z,19.80
2023-08-31T15:05:43.096Z,19.71
2023-08-31T15:08:09.733Z,19.71
2023-08-31T15:10:36.243Z,19.71
2023-08-31T15:13:02.761Z,19.77
2023-08-31T15:15:30.054Z,19.77
2023-08-31T15:17:56.647Z,19.74
2023-08-31T15:20:24.474Z,19.71
2023-08-31T15:22:51.070Z,19.61
2023-08-31T15:25:17.629Z,19.59
2023-08-31T15:27:44.165Z,19.55
2023-08-31T15:30:11.174Z,19.55
2023-08-31T15:32:38.378Z,19.55
2023-08-31T15:35:06.017Z,19.56
2023-08-31T15:37:32.588Z,19.56
2023-08-31T15:39:59.310Z,19.52
2023-08-31T15:42:29.650Z,19.53
2023-08-31T15:44:57.003Z,19.52
2023-08-31T15:47:24.086Z,19.56
2023-08-31T15:49:54.043Z,19.52
2023-08-31T15:52:20.603Z,19.50
2023-08-31T15:54:47.148Z,19.48
2023-08-31T15:57:13.624Z,19.54
2023-08-31T15:59:40.812Z,19.62
2023-08-31T16:02:07.456Z,19.70
2023-08-31T16:04:34.901Z,19.76
2023-08-31T16:07:01.389Z,19.83
2023-08-31T16:09:28.010Z,19.86
2023-08-31T16:11:54.450Z,19.90
2023-08-31T16:14:21.047Z,19.92
2023-08-31T16:16:47.589Z,19.95
2023-08-31T16:19:14.063Z,19.96
2023-08-31T16:21:40.696Z,19.91
2023-08-31T16:24:07.399Z,19.85
2023-08-31T16:26:33.972Z,19.75
2023-08-31T16:29:00.474Z,19.65
2023-08-31T16:31:27.078Z,19.59
2023-08-31T16:33:53.539Z,19.48
2023-08-31T16:36:21.279Z,19.41
2023-08-31T16:38:47.907Z,19.36
2023-08-31T16:41:14.409Z,19.29
2023-08-31T16:43:42.576Z,19.25
2023-08-31T16:46:09.165Z,19.20
2023-08-31T16:48:35.774Z,19.13
2023-08-31T16:51:02.238Z,19.10
2023-08-31T16:53:28.781Z,19.05
2023-08-31T16:55:56.514Z,18.99
2023-08-31T16:58:23.012Z,18.98
2023-08-31T17:00:49.546Z,18.92
2023-08-31T17:03:16.292Z,18.91
2023-08-31T17:05:42.956Z,18.87
2023-08-31T17:08:09.672Z,18.87
2023-08-31T17:10:39.361Z,18.83
2023-08-31T17:13:05.880Z,18.78
2023-08-31T17:15:32.632Z,18.70
2023-08-31T17:18:00.555Z,18.67
2023-08-31T17:20:27.164Z,18.64
2023-08-31T17:22:53.772Z,18.57
2023-08-31T17:25:20.996Z,18.56
2023-08-31T17:27:47.833Z,18.51
2023-08-31T17:30:14.520Z,18.47
2023-08-31T17:32:40.991Z,18.44
2023-08-31T17:35:08.304Z,18.39
2023-08-31T17:37:35.265Z,18.36
2023-08-31T17:40:08.316Z,18.31
2023-08-31T17:42:37.482Z,18.26
2023-08-31T17:45:07.971Z,18.22
2023-08-31T17:47:34.733Z,18.20
2023-08-31T17:50:01.805Z,18.16
2023-08-31T17:52:28.460Z,18.13
2023-08-31T17:54:55.048Z,18.09
2023-08-31T17:57:22.660Z,18.02
2023-08-31T17:59:49.745Z,17.99
2023-08-31T18:02:16.330Z,17.97
2023-08-31T18:04:42.839Z,17.97
2023-08-31T18:07:09.381Z,17.98
2023-08-31T18:09:38.933Z,17.93
2023-08-31T18:12:06.584Z,17.85
2023-08-31T18:14:34.382Z,17.80
2023-08-31T18:17:01.446Z,17.71
2023-08-31T18:19:32.167Z,17.59
2023-08-31T18:21:59.235Z,17.51
2023-08-31T18:24:26.074Z,17.50
2023-08-31T18:26:52.788Z,17.50
2023-08-31T18:29:19.571Z,17.45
2023-08-31T18:31:46.135Z,17.43
2023-08-31T18:34:12.566Z,17.39
2023-08-31T18:36:41.754Z,17.30
2023-08-31T18:39:08.465Z,17.24
2023-08-31T18:41:36.804Z,17.19
2023-08-31T18:44:03.487Z,17.09
2023-08-31T18:46:30.155Z,17.01
2023-08-31T18:48:57.283Z,17.00
2023-08-31T18:51:24.278Z,16.97
2023-08-31T18:53:50.797Z,16.97
2023-08-31T18:56:17.230Z,16.98
2023-08-31T18:58:45.634Z,16.93
2023-08-31T19:01:12.267Z,16.90
2023-08-31T19:03:38.826Z,16.90
2023-08-31T19:06:05.445Z,16.87
2023-08-31T19:08:31.933Z,16.86
2023-08-31T19:10:58.647Z,16.81
2023-08-31T19:13:26.053Z,16.75
2023-08-31T19:15:52.482Z,16.71
2023-08-31T19:18:19.259Z,16.73
2023-08-31T19:20:45.877Z,16.71
2023-08-31T19:23:12.403Z,16.66
2023-08-31T19:25:38.916Z,16.62
2023-08-31T19:28:06.741Z,16.62
2023-08-31T19:30:34.026Z,16.53
2023-08-31T19:33:01.906Z,16.47
2023-08-31T19:37:57.997Z,16.40
2023-08-31T19:40:24.568Z,16.32
2023-08-31T19:42:51.875Z,16.34
2023-08-31T19:45:19.212Z,16.32
2023-08-31T19:47:48.295Z,16.31
2023-08-31T19:50:16.090Z,16.25
2023-08-31T19:52:42.667Z,16.20
2023-08-31T19:55:12.547Z,16.17
2023-08-31T19:57:39.659Z,16.20
2023-08-31T20:00:08.011Z,16.18
2023-08-31T20:02:39.384Z,16.18
2023-08-31T20:05:06.434Z,16.20
2023-08-31T20:07:33.142Z,16.20
2023-08-31T20:09:59.767Z,16.18
2023-08-31T20:12:26.229Z,16.14
2023-08-31T20:14:53.238Z,16.08
2023-08-31T20:17:19.823Z,16.01
2023-08-31T20:19:46.286Z,15.99
2023-08-31T20:22:12.798Z,15.96
2023-08-31T20:24:39.254Z,15.95
2023-08-31T20:27:06.674Z,15.93
2023-08-31T20:29:33.770Z,15.94
2023-08-31T20:32:01.576Z,15.86
2023-08-31T20:34:28.648Z,15.84
2023-08-31T20:36:56.652Z,15.84
2023-08-31T20:39:23.653Z,15.80
2023-08-31T20:41:50.325Z,15.82
2023-08-31T20:44:16.778Z,15.82
2023-08-31T20:46:45.435Z,15.76
2023-08-31T20:49:12.087Z,15.70
2023-08-31T20:51:40.621Z,15.70
2023-08-31T20:54:08.315Z,15.63
2023-08-31T20:56:34.842Z,15.62
2023-08-31T20:59:01.469Z,15.64
2023-08-31T21:01:28.009Z,15.64
2023-08-31T21:03:57.054Z,15.63
2023-08-31T21:06:27.529Z,15.64
2023-08-31T21:08:55.041Z,15.61
2023-08-31T21:11:24.684Z,15.59
2023-08-31T21:13:52.147Z,15.60
2023-08-31T21:16:20.656Z,15.53
2023-08-31T21:18:47.742Z,15.52
2023-08-31T21:21:14.397Z,15.50
2023-08-31T21:23:41.112Z,15.51
2023-08-31T21:26:08.330Z,15.49
2023-08-31T21:28:35.453Z,15.49
2023-08-31T21:31:03.921Z,15.44
2023-08-31T21:33:30.923Z,15.41
2023-08-31T21:35:57.449Z,15.39
2023-08-31T21:38:23.888Z,15.31
2023-08-31T21:40:50.391Z,15.30
2023-08-31T21:43:17.286Z,15.31
2023-08-31T21:45:43.789Z,15.30
2023-08-31T21:48:10.388Z,15.26
2023-08-31T21:50:38.835Z,15.22
2023-08-31T21:53:07.812Z,15.27
2023-08-31T21:55:34.498Z,15.27
2023-08-31T21:58:01.010Z,15.28
2023-08-31T22:00:27.521Z,15.26
2023-08-31T22:02:54.136Z,15.24
2023-08-31T22:05:22.642Z,15.21
2023-08-31T22:07:49.786Z,15.15
2023-08-31T22:10:17.825Z,15.08
2023-08-31T22:12:45.902Z,15.05
2023-08-31T22:15:23.653Z,15.08
2023-08-31T22:17:52.698Z,15.07
2023-08-31T22:20:20.909Z,15.11
2023-08-31T22:22:50.102Z,15.13
2023-08-31T22:25:16.812Z,15.13
2023-08-31T22:27:43.547Z,15.09
2023-08-31T22:30:10.850Z,15.10
2023-08-31T22:32:38.016Z,15.12
2023-08-31T22:35:05.375Z,15.12
2023-08-31T22:37:31.922Z,15.10
2023-08-31T22:39:58.484Z,15.11
2023-08-31T22:42:25.138Z,15.13
2023-08-31T22:44:51.793Z,15.14
2023-08-31T22:47:18.325Z,15.15
2023-08-31T22:49:45.424Z,15.15
2023-08-31T22:52:13.661Z,15.15
2023-08-31T22:54:41.133Z,15.19
2023-08-31T22:57:08.017Z,15.34
2023-08-31T22:59:34.787Z,15.40
2023-08-31T23:02:04.419Z,15.35
2023-08-31T23:04:31.737Z,15.23
2023-08-31T23:06:58.232Z,15.21
2023-08-31T23:09:25.953Z,15.15
2023-08-31T23:11:52.609Z,15.09
2023-08-31T23:14:20.281Z,15.03
2023-08-31T23:16:46.787Z,14.87
2023-08-31T23:19:13.313Z,14.80
2023-08-31T23:21:43.331Z,14.74
2023-08-31T23:24:10.345Z,14.71
2023-08-31T23:26:37.024Z,14.67
2023-08-31T23:29:03.664Z,14.63
2023-08-31T23:31:33.108Z,14.60
2023-08-31T23:34:00.795Z,14.57
2023-08-31T23:36:27.690Z,14.61
2023-08-31T23:38:54.265Z,14.58
2023-08-31T23:41:21.039Z,14.61
2023-08-31T23:43:48.123Z,14.64
2023-08-31T23:46:14.620Z,14.66
2023-08-31T23:48:41.222Z,14.66
2023-08-31T23:51:07.758Z,14.70
2023-08-31T23:53:34.699Z,14.68
2023-08-31T23:56:05.893Z,14.67
2023-08-31T23:58:33.379Z,14.66
